Bom Fim do Bom Jesus, Brazil
Current Conditions -  °F | °C
As of 4:00 PM on Sunday 25 Jan 2015 (Local Time) from SBKP Reporting Station
Scattered Clouds Scattered Clouds  
Wind Chill: 88°   Ceiling: Unl
Heat Index: 88°   Visibility: 6mi
Dew Point: 59°   Wind: 6mph
Humidity: 38%   Direction: 310°NW
Pressure: 29.97"   Gusts: NA
Location:  23.29°S, 47.06°W
Report Text: SBKP 251800Z 31005KT 9999 SCT045 31/15 Q1015
Loading
Personal Weather Stations






























Interactive Weather Map New forecast layout! Learn more

10-Day Weather Forecast

Advertisements
Track Severe Weather on mobile